Independent Accord — A8MM4 — position and weather

sailwx.info

Track history (hours):
 
Tides and Currents Weather Stations Pressure Air Temp Water Temp Dewpoint Dewpoint Depression Visibility Wind Speed Wind Dir Waves Ship Positions

Independent Accord

Last reported at 2017-Nov-18 09:49 UTC. Time now 2017-Nov-19 03:00 UTC.
Position N 31°29' E 032°21'.

Length 167 m; draft 8.2 m.

Type: Ship (hazmat cat A). MMSI: 636091353.

Date/timePositionNaut miles runAvg speedWind from/ knotsBaromVisibWave heightAir tempDewpointWater temp
2017-Nov-18 09:49N 31°29' E 032°21'516.1
2017-Nov-18 09:30N 31°25' E 032°25'13 7.2
2017-Nov-18 07:44N 31°13' E 032°21'0 0.0
2017-Nov-18 03:26N 31°13' E 032°21'0 0.0
2017-Nov-18 01:56N 31°13' E 032°21'0 0.0
2017-Nov-17 22:20N 31°13' E 032°21'0 0.0
2017-Nov-17 21:56N 31°13' E 032°21'0 0.0
2017-Nov-17 21:29N 31°13' E 032°21'0 0.0
2017-Nov-17 17:26N 31°13' E 032°21'0 0.0
2017-Nov-17 16:44N 31°13' E 032°21'0 0.0
2017-Nov-17 16:29N 31°13' E 032°21'0 0.0
2017-Nov-17 15:59N 31°13' E 032°21'0 0.0
2017-Nov-17 15:29N 31°13' E 032°21'13 3.4
2017-Nov-17 11:39N 31°25' E 032°26'1 6.7
2017-Nov-17 11:30N 31°26' E 032°26'1 1.2
2017-Nov-17 11:00N 31°27' E 032°27'0 0.2
2017-Nov-17 10:25N 31°27' E 032°27'0 0.0
2017-Nov-17 07:00N 31°27' E 032°27'1 0.6
2017-Nov-17 05:20N 31°28' E 032°27'1 1.1
2017-Nov-17 04:44N 31°28' E 032°28'48315.2
2017-Nov-15 20:57N 37°26' E 025°55'716.3
2017-Nov-15 20:31N 37°33' E 025°54'  
Track history (hours):
 
Tides and Currents Weather Stations Pressure Air Temp Water Temp Dewpoint Dewpoint Depression Visibility Wind Speed Wind Dir Waves Ship Positions

Independent Accord

Last reported at 2017-Nov-18 09:49 UTC. Time now 2017-Nov-19 03:00 UTC.
Position N 31°29' E 032°21'.

Length 167 m; draft 8.2 m.

Type: Ship (hazmat cat A). MMSI: 636091353.

Date/timePositionNaut miles runAvg speedWind from/ knotsBaromVisibWave heightAir tempDewpointWater temp
2017-Nov-18 09:49N 31°29' E 032°21'516.1
2017-Nov-18 09:30N 31°25' E 032°25'13 7.2
2017-Nov-18 07:44N 31°13' E 032°21'0 0.0
2017-Nov-18 03:26N 31°13' E 032°21'0 0.0
2017-Nov-18 01:56N 31°13' E 032°21'0 0.0
2017-Nov-17 22:20N 31°13' E 032°21'0 0.0
2017-Nov-17 21:56N 31°13' E 032°21'0 0.0
2017-Nov-17 21:29N 31°13' E 032°21'0 0.0
2017-Nov-17 17:26N 31°13' E 032°21'0 0.0
2017-Nov-17 16:44N 31°13' E 032°21'0 0.0
2017-Nov-17 16:29N 31°13' E 032°21'0 0.0
2017-Nov-17 15:59N 31°13' E 032°21'0 0.0
2017-Nov-17 15:29N 31°13' E 032°21'13 3.4
2017-Nov-17 11:39N 31°25' E 032°26'1 6.7
2017-Nov-17 11:30N 31°26' E 032°26'1 1.2
2017-Nov-17 11:00N 31°27' E 032°27'0 0.2
2017-Nov-17 10:25N 31°27' E 032°27'0 0.0
2017-Nov-17 07:00N 31°27' E 032°27'1 0.6
2017-Nov-17 05:20N 31°28' E 032°27'1 1.1
2017-Nov-17 04:44N 31°28' E 032°28'48315.2
2017-Nov-15 20:57N 37°26' E 025°55'716.3
2017-Nov-15 20:31N 37°33' E 025°54'  

Dump ship's entire track history